sensor_id;sensor_type;location;lat;lon;timestamp;temperature;humidity
76897;SHT30;65856;52.178;21.176;2023-07-20T00:01:07;19.68;56.94
76897;SHT30;65856;52.178;21.176;2023-07-20T00:03:32;19.60;57.09
76897;SHT30;65856;52.178;21.176;2023-07-20T00:05:58;19.53;57.21
76897;SHT30;65856;52.178;21.176;2023-07-20T00:08:23;19.49;57.34
76897;SHT30;65856;52.178;21.176;2023-07-20T00:10:49;19.46;57.48
76897;SHT30;65856;52.178;21.176;2023-07-20T00:13:15;19.43;57.56
76897;SHT30;65856;52.178;21.176;2023-07-20T00:15:41;19.36;57.74
76897;SHT30;65856;52.178;21.176;2023-07-20T00:18:06;19.33;57.83
76897;SHT30;65856;52.178;21.176;2023-07-20T00:20:32;19.30;57.82
76897;SHT30;65856;52.178;21.176;2023-07-20T00:22:58;19.22;58.03
76897;SHT30;65856;52.178;21.176;2023-07-20T00:25:24;19.13;58.35
76897;SHT30;65856;52.178;21.176;2023-07-20T00:27:50;19.07;58.67
76897;SHT30;65856;52.178;21.176;2023-07-20T00:30:16;19.02;58.90
76897;SHT30;65856;52.178;21.176;2023-07-20T00:32:42;19.00;59.02
76897;SHT30;65856;52.178;21.176;2023-07-20T00:35:08;19.00;59.17
76897;SHT30;65856;52.178;21.176;2023-07-20T00:37:34;19.01;59.29
76897;SHT30;65856;52.178;21.176;2023-07-20T00:40:00;18.99;59.33
76897;SHT30;65856;52.178;21.176;2023-07-20T00:42:26;18.93;59.39
76897;SHT30;65856;52.178;21.176;2023-07-20T00:44:51;18.90;59.42
76897;SHT30;65856;52.178;21.176;2023-07-20T00:47:17;18.89;59.48
76897;SHT30;65856;52.178;21.176;2023-07-20T00:49:42;18.85;59.43
76897;SHT30;65856;52.178;21.176;2023-07-20T00:52:09;18.77;59.59
76897;SHT30;65856;52.178;21.176;2023-07-20T00:54:39;18.72;59.85
76897;SHT30;65856;52.178;21.176;2023-07-20T00:57:07;18.71;60.04
76897;SHT30;65856;52.178;21.176;2023-07-20T00:59:36;18.72;60.15
76897;SHT30;65856;52.178;21.176;2023-07-20T01:02:02;18.72;60.30
76897;SHT30;65856;52.178;21.176;2023-07-20T01:04:28;18.72;60.37
76897;SHT30;65856;52.178;21.176;2023-07-20T01:07:01;18.73;60.38
76897;SHT30;65856;52.178;21.176;2023-07-20T01:15:13;18.74;60.70
76897;SHT30;65856;52.178;21.176;2023-07-20T01:17:39;18.74;60.72
76897;SHT30;65856;52.178;21.176;2023-07-20T01:20:06;18.73;60.80
76897;SHT30;65856;52.178;21.176;2023-07-20T01:29:11;18.73;60.92
76897;SHT30;65856;52.178;21.176;2023-07-20T01:32:19;18.70;60.80
76897;SHT30;65856;52.178;21.176;2023-07-20T01:34:50;18.68;61.01
76897;SHT30;65856;52.178;21.176;2023-07-20T01:37:19;18.70;61.11
76897;SHT30;65856;52.178;21.176;2023-07-20T01:39:50;18.67;61.16
76897;SHT30;65856;52.178;21.176;2023-07-20T01:42:20;18.64;61.26
76897;SHT30;65856;52.178;21.176;2023-07-20T01:44:50;18.65;61.30
76897;SHT30;65856;52.178;21.176;2023-07-20T01:47:17;18.62;61.28
76897;SHT30;65856;52.178;21.176;2023-07-20T01:49:43;18.61;61.20
76897;SHT30;65856;52.178;21.176;2023-07-20T01:52:08;18.53;61.37
76897;SHT30;65856;52.178;21.176;2023-07-20T01:54:34;18.49;61.53
76897;SHT30;65856;52.178;21.176;2023-07-20T01:56:59;18.45;61.69
76897;SHT30;65856;52.178;21.176;2023-07-20T01:59:25;18.41;61.61
76897;SHT30;65856;52.178;21.176;2023-07-20T02:01:50;18.39;61.59
76897;SHT30;65856;52.178;21.176;2023-07-20T02:04:17;18.41;61.63
76897;SHT30;65856;52.178;21.176;2023-07-20T02:06:42;18.38;61.59
76897;SHT30;65856;52.178;21.176;2023-07-20T02:09:08;18.40;61.82
76897;SHT30;65856;52.178;21.176;2023-07-20T02:11:33;18.38;62.11
76897;SHT30;65856;52.178;21.176;2023-07-20T02:13:59;18.38;62.11
76897;SHT30;65856;52.178;21.176;2023-07-20T02:16:25;18.40;62.14
76897;SHT30;65856;52.178;21.176;2023-07-20T02:18:50;18.38;62.19
76897;SHT30;65856;52.178;21.176;2023-07-20T02:21:15;18.37;62.36
76897;SHT30;65856;52.178;21.176;2023-07-20T02:23:41;18.42;62.35
76897;SHT30;65856;52.178;21.176;2023-07-20T02:26:07;18.46;62.27
76897;SHT30;65856;52.178;21.176;2023-07-20T02:28:32;18.48;62.24
76897;SHT30;65856;52.178;21.176;2023-07-20T02:30:58;18.42;62.25
76897;SHT30;65856;52.178;21.176;2023-07-20T02:33:23;18.34;62.48
76897;SHT30;65856;52.178;21.176;2023-07-20T02:35:48;18.26;62.56
76897;SHT30;65856;52.178;21.176;2023-07-20T02:38:14;18.27;62.59
76897;SHT30;65856;52.178;21.176;2023-07-20T02:40:40;18.30;62.56
76897;SHT30;65856;52.178;21.176;2023-07-20T02:43:05;18.36;62.48
76897;SHT30;65856;52.178;21.176;2023-07-20T02:45:31;18.42;62.57
76897;SHT30;65856;52.178;21.176;2023-07-20T02:47:56;18.48;62.78
76897;SHT30;65856;52.178;21.176;2023-07-20T02:50:22;18.53;62.92
76897;SHT30;65856;52.178;21.176;2023-07-20T02:52:47;18.50;62.74
76897;SHT30;65856;52.178;21.176;2023-07-20T02:55:13;18.44;62.91
76897;SHT30;65856;52.178;21.176;2023-07-20T02:57:38;18.44;62.94
76897;SHT30;65856;52.178;21.176;2023-07-20T03:00:04;18.46;62.74
76897;SHT30;65856;52.178;21.176;2023-07-20T03:02:31;18.51;62.53
76897;SHT30;65856;52.178;21.176;2023-07-20T03:04:57;18.54;62.54
76897;SHT30;65856;52.178;21.176;2023-07-20T03:07:26;18.49;62.86
76897;SHT30;65856;52.178;21.176;2023-07-20T03:09:54;18.42;63.20
76897;SHT30;65856;52.178;21.176;2023-07-20T03:12:20;18.35;63.36
76897;SHT30;65856;52.178;21.176;2023-07-20T03:14:46;18.29;63.28
76897;SHT30;65856;52.178;21.176;2023-07-20T03:17:12;18.29;63.28
76897;SHT30;65856;52.178;21.176;2023-07-20T03:19:37;18.29;63.28
76897;SHT30;65856;52.178;21.176;2023-07-20T03:22:03;18.33;63.29
76897;SHT30;65856;52.178;21.176;2023-07-20T03:24:29;18.30;63.39
76897;SHT30;65856;52.178;21.176;2023-07-20T03:26:54;18.26;63.53
76897;SHT30;65856;52.178;21.176;2023-07-20T03:29:20;18.31;63.47
76897;SHT30;65856;52.178;21.176;2023-07-20T03:31:45;18.32;63.51
76897;SHT30;65856;52.178;21.176;2023-07-20T03:34:10;18.34;63.54
76897;SHT30;65856;52.178;21.176;2023-07-20T03:36:36;18.37;63.56
76897;SHT30;65856;52.178;21.176;2023-07-20T03:39:01;18.41;63.47
76897;SHT30;65856;52.178;21.176;2023-07-20T03:41:28;18.45;63.57
76897;SHT30;65856;52.178;21.176;2023-07-20T03:43:53;18.45;63.80
76897;SHT30;65856;52.178;21.176;2023-07-20T03:46:19;18.46;63.73
76897;SHT30;65856;52.178;21.176;2023-07-20T03:48:45;18.49;63.74
76897;SHT30;65856;52.178;21.176;2023-07-20T03:51:10;18.52;63.58
76897;SHT30;65856;52.178;21.176;2023-07-20T03:53:36;18.52;63.84
76897;SHT30;65856;52.178;21.176;2023-07-20T03:56:01;18.53;64.08
76897;SHT30;65856;52.178;21.176;2023-07-20T03:58:27;18.55;64.18
76897;SHT30;65856;52.178;21.176;2023-07-20T04:00:52;18.56;63.98
76897;SHT30;65856;52.178;21.176;2023-07-20T04:03:18;18.55;63.97
76897;SHT30;65856;52.178;21.176;2023-07-20T04:05:45;18.55;63.92
76897;SHT30;65856;52.178;21.176;2023-07-20T04:08:11;18.53;64.02
76897;SHT30;65856;52.178;21.176;2023-07-20T04:10:37;18.50;64.12
76897;SHT30;65856;52.178;21.176;2023-07-20T04:13:04;18.53;64.52
76897;SHT30;65856;52.178;21.176;2023-07-20T04:15:30;18.55;65.13
76897;SHT30;65856;52.178;21.176;2023-07-20T04:17:56;18.57;65.37
76897;SHT30;65856;52.178;21.176;2023-07-20T04:20:22;18.61;65.68
76897;SHT30;65856;52.178;21.176;2023-07-20T04:22:49;18.61;66.25
76897;SHT30;65856;52.178;21.176;2023-07-20T04:25:15;18.66;66.61
76897;SHT30;65856;52.178;21.176;2023-07-20T04:27:43;18.71;67.08
76897;SHT30;65856;52.178;21.176;2023-07-20T04:30:08;18.74;67.57
76897;SHT30;65856;52.178;21.176;2023-07-20T04:32:36;18.63;68.03
76897;SHT30;65856;52.178;21.176;2023-07-20T04:35:06;18.59;68.64
76897;SHT30;65856;52.178;21.176;2023-07-20T04:37:35;18.62;68.76
76897;SHT30;65856;52.178;21.176;2023-07-20T04:40:00;18.67;68.91
76897;SHT30;65856;52.178;21.176;2023-07-20T04:42:26;18.70;69.46
76897;SHT30;65856;52.178;21.176;2023-07-20T04:44:52;18.74;69.48
76897;SHT30;65856;52.178;21.176;2023-07-20T04:47:17;18.78;69.57
76897;SHT30;65856;52.178;21.176;2023-07-20T04:49:43;18.77;69.56
76897;SHT30;65856;52.178;21.176;2023-07-20T04:52:08;18.73;69.90
76897;SHT30;65856;52.178;21.176;2023-07-20T04:54:33;18.70;70.25
76897;SHT30;65856;52.178;21.176;2023-07-20T04:56:59;18.72;70.30
76897;SHT30;65856;52.178;21.176;2023-07-20T04:59:24;18.75;70.36
76897;SHT30;65856;52.178;21.176;2023-07-20T05:01:50;18.77;70.20
76897;SHT30;65856;52.178;21.176;2023-07-20T05:04:15;18.86;70.36
76897;SHT30;65856;52.178;21.176;2023-07-20T05:06:41;18.92;70.57
76897;SHT30;65856;52.178;21.176;2023-07-20T05:09:06;19.02;70.83
76897;SHT30;65856;52.178;21.176;2023-07-20T05:11:32;19.09;70.74
76897;SHT30;65856;52.178;21.176;2023-07-20T05:13:58;19.15;70.46
76897;SHT30;65856;52.178;21.176;2023-07-20T05:16:24;19.19;70.39
76897;SHT30;65856;52.178;21.176;2023-07-20T05:18:49;19.27;70.19
76897;SHT30;65856;52.178;21.176;2023-07-20T05:21:15;19.33;70.36
76897;SHT30;65856;52.178;21.176;2023-07-20T05:23:40;19.40;70.60
76897;SHT30;65856;52.178;21.176;2023-07-20T05:26:06;19.48;70.49
76897;SHT30;65856;52.178;21.176;2023-07-20T05:28:31;19.54;70.53
76897;SHT30;65856;52.178;21.176;2023-07-20T05:30:57;19.58;70.57
76897;SHT30;65856;52.178;21.176;2023-07-20T05:33:24;19.64;70.74
76897;SHT30;65856;52.178;21.176;2023-07-20T05:35:50;19.71;70.38
76897;SHT30;65856;52.178;21.176;2023-07-20T05:38:15;19.79;70.22
76897;SHT30;65856;52.178;21.176;2023-07-20T05:40:41;19.86;70.16
76897;SHT30;65856;52.178;21.176;2023-07-20T05:43:09;19.95;70.11
76897;SHT30;65856;52.178;21.176;2023-07-20T05:45:35;20.03;69.79
76897;SHT30;65856;52.178;21.176;2023-07-20T05:48:01;20.12;69.73
76897;SHT30;65856;52.178;21.176;2023-07-20T05:50:26;20.16;69.27
76897;SHT30;65856;52.178;21.176;2023-07-20T05:52:53;20.20;69.21
76897;SHT30;65856;52.178;21.176;2023-07-20T05:55:19;20.25;68.74
76897;SHT30;65856;52.178;21.176;2023-07-20T05:57:45;20.29;68.53
76897;SHT30;65856;52.178;21.176;2023-07-20T06:00:12;20.33;68.54
76897;SHT30;65856;52.178;21.176;2023-07-20T06:02:39;20.40;68.39
76897;SHT30;65856;52.178;21.176;2023-07-20T06:05:05;20.45;68.21
76897;SHT30;65856;52.178;21.176;2023-07-20T06:07:36;20.51;67.62
76897;SHT30;65856;52.178;21.176;2023-07-20T06:10:02;20.56;66.94
76897;SHT30;65856;52.178;21.176;2023-07-20T06:12:28;20.56;66.95
76897;SHT30;65856;52.178;21.176;2023-07-20T06:14:54;20.54;66.84
76897;SHT30;65856;52.178;21.176;2023-07-20T06:17:19;20.57;66.76
76897;SHT30;65856;52.178;21.176;2023-07-20T06:19:46;20.57;66.59
76897;SHT30;65856;52.178;21.176;2023-07-20T06:22:11;20.56;66.25
76897;SHT30;65856;52.178;21.176;2023-07-20T06:24:36;20.61;65.89
76897;SHT30;65856;52.178;21.176;2023-07-20T06:27:02;20.66;65.50
76897;SHT30;65856;52.178;21.176;2023-07-20T06:29:28;20.70;65.10
76897;SHT30;65856;52.178;21.176;2023-07-20T06:31:53;20.77;65.41
76897;SHT30;65856;52.178;21.176;2023-07-20T06:34:19;20.82;65.37
76897;SHT30;65856;52.178;21.176;2023-07-20T06:36:44;20.88;64.96
76897;SHT30;65856;52.178;21.176;2023-07-20T06:39:10;20.91;65.00
76897;SHT30;65856;52.178;21.176;2023-07-20T06:41:35;20.94;64.80
76897;SHT30;65856;52.178;21.176;2023-07-20T06:44:01;20.97;64.99
76897;SHT30;65856;52.178;21.176;2023-07-20T06:46:28;21.00;64.96
76897;SHT30;65856;52.178;21.176;2023-07-20T06:48:54;21.05;65.04
76897;SHT30;65856;52.178;21.176;2023-07-20T06:51:19;21.06;65.04
76897;SHT30;65856;52.178;21.176;2023-07-20T06:53:45;21.05;64.82
76897;SHT30;65856;52.178;21.176;2023-07-20T06:56:11;21.04;64.70
76897;SHT30;65856;52.178;21.176;2023-07-20T06:58:36;21.01;64.89
76897;SHT30;65856;52.178;21.176;2023-07-20T07:01:05;21.03;65.05
76897;SHT30;65856;52.178;21.176;2023-07-20T07:03:32;21.03;65.46
76897;SHT30;65856;52.178;21.176;2023-07-20T07:05:58;20.99;65.61
76897;SHT30;65856;52.178;21.176;2023-07-20T07:08:24;21.01;65.54
76897;SHT30;65856;52.178;21.176;2023-07-20T07:10:50;20.98;64.95
76897;SHT30;65856;52.178;21.176;2023-07-20T07:13:15;20.82;65.04
76897;SHT30;65856;52.178;21.176;2023-07-20T07:15:42;20.73;65.22
76897;SHT30;65856;52.178;21.176;2023-07-20T07:18:07;20.67;65.58
76897;SHT30;65856;52.178;21.176;2023-07-20T07:20:33;20.64;65.96
76897;SHT30;65856;52.178;21.176;2023-07-20T07:22:58;20.63;66.06
76897;SHT30;65856;52.178;21.176;2023-07-20T07:25:25;20.61;66.23
76897;SHT30;65856;52.178;21.176;2023-07-20T07:27:52;20.60;66.20
76897;SHT30;65856;52.178;21.176;2023-07-20T07:30:19;20.54;65.74
76897;SHT30;65856;52.178;21.176;2023-07-20T07:32:45;20.65;65.59
76897;SHT30;65856;52.178;21.176;2023-07-20T07:35:11;20.72;65.50
76897;SHT30;65856;52.178;21.176;2023-07-20T07:37:36;20.77;65.63
76897;SHT30;65856;52.178;21.176;2023-07-20T07:40:03;20.81;65.29
76897;SHT30;65856;52.178;21.176;2023-07-20T07:42:31;20.84;65.16
76897;SHT30;65856;52.178;21.176;2023-07-20T07:44:57;20.86;65.39
76897;SHT30;65856;52.178;21.176;2023-07-20T07:47:22;20.87;65.33
76897;SHT30;65856;52.178;21.176;2023-07-20T07:49:48;20.86;65.33
76897;SHT30;65856;52.178;21.176;2023-07-20T07:52:14;20.83;65.12
76897;SHT30;65856;52.178;21.176;2023-07-20T07:54:40;20.85;65.16
76897;SHT30;65856;52.178;21.176;2023-07-20T07:57:05;20.83;65.15
76897;SHT30;65856;52.178;21.176;2023-07-20T07:59:31;20.76;65.20
76897;SHT30;65856;52.178;21.176;2023-07-20T08:02:01;20.72;65.22
76897;SHT30;65856;52.178;21.176;2023-07-20T08:04:27;20.70;65.31
76897;SHT30;65856;52.178;21.176;2023-07-20T08:06:53;20.70;65.80
76897;SHT30;65856;52.178;21.176;2023-07-20T08:09:18;20.68;66.42
76897;SHT30;65856;52.178;21.176;2023-07-20T08:11:44;20.68;66.33
76897;SHT30;65856;52.178;21.176;2023-07-20T08:14:09;20.66;66.30
76897;SHT30;65856;52.178;21.176;2023-07-20T08:16:34;20.58;66.87
76897;SHT30;65856;52.178;21.176;2023-07-20T08:19:00;20.53;67.57
76897;SHT30;65856;52.178;21.176;2023-07-20T08:21:25;20.51;67.59
76897;SHT30;65856;52.178;21.176;2023-07-20T08:23:51;20.48;67.98
76897;SHT30;65856;52.178;21.176;2023-07-20T08:26:16;20.43;67.71
76897;SHT30;65856;52.178;21.176;2023-07-20T08:28:43;20.41;67.81
76897;SHT30;65856;52.178;21.176;2023-07-20T08:31:10;20.39;68.05
76897;SHT30;65856;52.178;21.176;2023-07-20T08:33:36;20.37;68.10
76897;SHT30;65856;52.178;21.176;2023-07-20T08:36:01;20.36;68.07
76897;SHT30;65856;52.178;21.176;2023-07-20T08:38:28;20.38;68.21
76897;SHT30;65856;52.178;21.176;2023-07-20T08:40:54;20.36;68.29
76897;SHT30;65856;52.178;21.176;2023-07-20T08:43:20;20.34;68.42
76897;SHT30;65856;52.178;21.176;2023-07-20T08:45:51;20.33;68.25
76897;SHT30;65856;52.178;21.176;2023-07-20T08:48:23;20.29;68.46
76897;SHT30;65856;52.178;21.176;2023-07-20T08:50:50;20.22;68.55
76897;SHT30;65856;52.178;21.176;2023-07-20T08:53:19;20.19;68.70
76897;SHT30;65856;52.178;21.176;2023-07-20T08:55:46;20.21;68.66
76897;SHT30;65856;52.178;21.176;2023-07-20T08:58:17;20.21;68.78
76897;SHT30;65856;52.178;21.176;2023-07-20T09:00:43;20.19;68.83
76897;SHT30;65856;52.178;21.176;2023-07-20T09:03:10;20.17;68.78
76897;SHT30;65856;52.178;21.176;2023-07-20T09:05:36;20.18;68.94
76897;SHT30;65856;52.178;21.176;2023-07-20T09:08:04;20.21;69.11
76897;SHT30;65856;52.178;21.176;2023-07-20T09:10:30;20.23;69.14
76897;SHT30;65856;52.178;21.176;2023-07-20T09:12:56;20.23;69.31
76897;SHT30;65856;52.178;21.176;2023-07-20T09:15:22;20.25;69.30
76897;SHT30;65856;52.178;21.176;2023-07-20T09:17:48;20.25;69.01
76897;SHT30;65856;52.178;21.176;2023-07-20T09:20:17;20.27;69.11
76897;SHT30;65856;52.178;21.176;2023-07-20T09:22:44;20.28;69.35
76897;SHT30;65856;52.178;21.176;2023-07-20T09:25:14;20.32;69.41
76897;SHT30;65856;52.178;21.176;2023-07-20T09:27:43;20.33;69.60
76897;SHT30;65856;52.178;21.176;2023-07-20T09:30:13;20.35;69.52
76897;SHT30;65856;52.178;21.176;2023-07-20T09:32:48;20.38;69.31
76897;SHT30;65856;52.178;21.176;2023-07-20T09:35:16;20.39;69.19
76897;SHT30;65856;52.178;21.176;2023-07-20T09:40:26;20.37;69.12
76897;SHT30;65856;52.178;21.176;2023-07-20T09:42:53;20.42;69.20
76897;SHT30;65856;52.178;21.176;2023-07-20T09:45:28;20.51;69.20
76897;SHT30;65856;52.178;21.176;2023-07-20T09:48:06;20.58;68.91
76897;SHT30;65856;52.178;21.176;2023-07-20T09:50:48;20.63;68.77
76897;SHT30;65856;52.178;21.176;2023-07-20T09:53:16;20.69;68.86
76897;SHT30;65856;52.178;21.176;2023-07-20T09:55:43;20.82;69.29
76897;SHT30;65856;52.178;21.176;2023-07-20T09:58:11;20.98;69.35
76897;SHT30;65856;52.178;21.176;2023-07-20T10:00:37;21.12;69.00
76897;SHT30;65856;52.178;21.176;2023-07-20T10:03:05;21.19;68.52
76897;SHT30;65856;52.178;21.176;2023-07-20T10:05:32;21.24;68.17
76897;SHT30;65856;52.178;21.176;2023-07-20T10:08:01;21.39;67.98
76897;SHT30;65856;52.178;21.176;2023-07-20T10:10:31;21.58;67.78
76897;SHT30;65856;52.178;21.176;2023-07-20T10:13:01;21.72;67.55
76897;SHT30;65856;52.178;21.176;2023-07-20T10:15:35;21.79;66.29
76897;SHT30;65856;52.178;21.176;2023-07-20T10:18:17;21.75;65.83
76897;SHT30;65856;52.178;21.176;2023-07-20T10:20:54;21.65;64.70
76897;SHT30;65856;52.178;21.176;2023-07-20T10:23:22;21.57;64.38
76897;SHT30;65856;52.178;21.176;2023-07-20T10:25:48;21.49;64.61
76897;SHT30;65856;52.178;21.176;2023-07-20T10:28:16;21.49;64.57
76897;SHT30;65856;52.178;21.176;2023-07-20T10:30:42;21.59;64.83
76897;SHT30;65856;52.178;21.176;2023-07-20T10:33:08;21.72;64.64
76897;SHT30;65856;52.178;21.176;2023-07-20T10:39:13;21.92;63.75
76897;SHT30;65856;52.178;21.176;2023-07-20T10:44:06;21.99;62.73
76897;SHT30;65856;52.178;21.176;2023-07-20T10:46:35;22.00;62.38
76897;SHT30;65856;52.178;21.176;2023-07-20T10:49:13;21.99;61.80
76897;SHT30;65856;52.178;21.176;2023-07-20T10:51:40;21.98;62.03
76897;SHT30;65856;52.178;21.176;2023-07-20T10:56:43;21.98;61.51
76897;SHT30;65856;52.178;21.176;2023-07-20T11:01:50;21.99;61.34
76897;SHT30;65856;52.178;21.176;2023-07-20T11:04:44;21.90;61.15
76897;SHT30;65856;52.178;21.176;2023-07-20T11:07:15;21.89;61.20
76897;SHT30;65856;52.178;21.176;2023-07-20T11:10:14;21.99;61.07
76897;SHT30;65856;52.178;21.176;2023-07-20T11:12:40;22.15;60.55
76897;SHT30;65856;52.178;21.176;2023-07-20T11:15:06;22.33;60.38
76897;SHT30;65856;52.178;21.176;2023-07-20T11:17:32;22.49;59.67
76897;SHT30;65856;52.178;21.176;2023-07-20T11:19:59;22.61;59.14
76897;SHT30;65856;52.178;21.176;2023-07-20T11:22:28;22.63;58.64
76897;SHT30;65856;52.178;21.176;2023-07-20T11:24:56;22.68;58.97
76897;SHT30;65856;52.178;21.176;2023-07-20T11:27:23;22.78;58.36
76897;SHT30;65856;52.178;21.176;2023-07-20T11:29:49;22.76;58.60
76897;SHT30;65856;52.178;21.176;2023-07-20T11:32:21;22.76;58.47
76897;SHT30;65856;52.178;21.176;2023-07-20T11:34:49;22.82;58.43
76897;SHT30;65856;52.178;21.176;2023-07-20T11:37:15;22.86;58.21
76897;SHT30;65856;52.178;21.176;2023-07-20T11:39:43;22.91;57.90
76897;SHT30;65856;52.178;21.176;2023-07-20T11:42:09;22.88;57.87
76897;SHT30;65856;52.178;21.176;2023-07-20T11:44:34;22.86;58.29
76897;SHT30;65856;52.178;21.176;2023-07-20T11:47:01;22.92;58.50
76897;SHT30;65856;52.178;21.176;2023-07-20T11:49:34;22.99;58.27
76897;SHT30;65856;52.178;21.176;2023-07-20T11:52:15;23.11;57.80
76897;SHT30;65856;52.178;21.176;2023-07-20T11:54:42;23.20;57.85
76897;SHT30;65856;52.178;21.176;2023-07-20T11:57:16;23.28;57.56
76897;SHT30;65856;52.178;21.176;2023-07-20T11:59:55;23.35;57.37
76897;SHT30;65856;52.178;21.176;2023-07-20T12:02:26;23.42;57.07
76897;SHT30;65856;52.178;21.176;2023-07-20T12:04:56;23.46;56.79
76897;SHT30;65856;52.178;21.176;2023-07-20T12:07:22;23.50;56.23
76897;SHT30;65856;52.178;21.176;2023-07-20T12:13:02;23.58;55.71
76897;SHT30;65856;52.178;21.176;2023-07-20T12:15:29;23.60;55.38
76897;SHT30;65856;52.178;21.176;2023-07-20T12:18:01;23.64;55.37
76897;SHT30;65856;52.178;21.176;2023-07-20T12:20:32;23.72;55.28
76897;SHT30;65856;52.178;21.176;2023-07-20T12:23:04;23.79;55.30
76897;SHT30;65856;52.178;21.176;2023-07-20T12:25:41;23.84;55.29
76897;SHT30;65856;52.178;21.176;2023-07-20T12:30:45;23.98;55.10
76897;SHT30;65856;52.178;21.176;2023-07-20T12:33:13;24.00;54.45
76897;SHT30;65856;52.178;21.176;2023-07-20T12:35:42;24.00;54.35
76897;SHT30;65856;52.178;21.176;2023-07-20T12:38:08;23.97;53.85
76897;SHT30;65856;52.178;21.176;2023-07-20T12:40:34;23.96;54.17
76897;SHT30;65856;52.178;21.176;2023-07-20T12:43:01;24.08;54.23
76897;SHT30;65856;52.178;21.176;2023-07-20T12:45:26;24.21;53.89
76897;SHT30;65856;52.178;21.176;2023-07-20T12:47:52;24.17;53.52
76897;SHT30;65856;52.178;21.176;2023-07-20T12:50:18;24.10;53.64
76897;SHT30;65856;52.178;21.176;2023-07-20T12:52:43;24.07;53.59
76897;SHT30;65856;52.178;21.176;2023-07-20T12:55:09;24.02;53.54
76897;SHT30;65856;52.178;21.176;2023-07-20T12:57:35;24.02;53.46
76897;SHT30;65856;52.178;21.176;2023-07-20T13:00:03;24.06;53.56
76897;SHT30;65856;52.178;21.176;2023-07-20T13:02:35;24.10;53.21
76897;SHT30;65856;52.178;21.176;2023-07-20T13:05:01;24.16;53.21
76897;SHT30;65856;52.178;21.176;2023-07-20T13:07:31;24.28;53.00
76897;SHT30;65856;52.178;21.176;2023-07-20T13:10:00;24.34;52.71
76897;SHT30;65856;52.178;21.176;2023-07-20T13:12:29;24.32;52.54
76897;SHT30;65856;52.178;21.176;2023-07-20T13:14:58;24.35;52.79
76897;SHT30;65856;52.178;21.176;2023-07-20T13:17:33;24.44;52.80
76897;SHT30;65856;52.178;21.176;2023-07-20T13:20:00;24.49;52.32
76897;SHT30;65856;52.178;21.176;2023-07-20T13:22:31;24.46;51.97
76897;SHT30;65856;52.178;21.176;2023-07-20T13:24:57;24.42;52.04
76897;SHT30;65856;52.178;21.176;2023-07-20T13:27:23;24.41;52.20
76897;SHT30;65856;52.178;21.176;2023-07-20T13:29:51;24.38;52.13
76897;SHT30;65856;52.178;21.176;2023-07-20T13:32:16;24.41;52.27
76897;SHT30;65856;52.178;21.176;2023-07-20T13:34:43;24.41;52.01
76897;SHT30;65856;52.178;21.176;2023-07-20T13:37:10;24.38;52.37
76897;SHT30;65856;52.178;21.176;2023-07-20T13:39:36;24.41;52.44
76897;SHT30;65856;52.178;21.176;2023-07-20T13:42:03;24.42;52.43
76897;SHT30;65856;52.178;21.176;2023-07-20T13:44:34;24.39;52.24
76897;SHT30;65856;52.178;21.176;2023-07-20T13:47:00;24.41;52.38
76897;SHT30;65856;52.178;21.176;2023-07-20T13:49:27;24.48;52.34
76897;SHT30;65856;52.178;21.176;2023-07-20T13:51:53;24.51;52.44
76897;SHT30;65856;52.178;21.176;2023-07-20T13:54:18;24.52;52.43
76897;SHT30;65856;52.178;21.176;2023-07-20T13:56:44;24.52;52.41
76897;SHT30;65856;52.178;21.176;2023-07-20T13:59:10;24.48;52.21
76897;SHT30;65856;52.178;21.176;2023-07-20T14:01:35;24.47;52.11
76897;SHT30;65856;52.178;21.176;2023-07-20T14:04:01;24.49;51.96
76897;SHT30;65856;52.178;21.176;2023-07-20T14:06:31;24.53;51.92
76897;SHT30;65856;52.178;21.176;2023-07-20T14:08:58;24.49;51.97
76897;SHT30;65856;52.178;21.176;2023-07-20T14:11:24;24.44;52.01
76897;SHT30;65856;52.178;21.176;2023-07-20T14:13:51;24.40;51.57
76897;SHT30;65856;52.178;21.176;2023-07-20T14:16:20;24.29;52.35
76897;SHT30;65856;52.178;21.176;2023-07-20T14:18:47;24.27;52.83
76897;SHT30;65856;52.178;21.176;2023-07-20T14:21:14;24.29;52.67
76897;SHT30;65856;52.178;21.176;2023-07-20T14:23:41;24.28;52.52
76897;SHT30;65856;52.178;21.176;2023-07-20T14:26:07;24.29;52.80
76897;SHT30;65856;52.178;21.176;2023-07-20T14:28:34;24.31;52.85
76897;SHT30;65856;52.178;21.176;2023-07-20T14:31:00;24.25;52.76
76897;SHT30;65856;52.178;21.176;2023-07-20T14:33:25;24.16;52.12
76897;SHT30;65856;52.178;21.176;2023-07-20T14:35:51;24.12;52.05
76897;SHT30;65856;52.178;21.176;2023-07-20T14:38:17;24.09;51.76
76897;SHT30;65856;52.178;21.176;2023-07-20T14:40:42;24.09;51.50
76897;SHT30;65856;52.178;21.176;2023-07-20T14:43:08;24.02;51.67
76897;SHT30;65856;52.178;21.176;2023-07-20T14:45:34;23.93;51.86
76897;SHT30;65856;52.178;21.176;2023-07-20T14:48:02;23.92;52.11
76897;SHT30;65856;52.178;21.176;2023-07-20T14:50:28;23.87;51.82
76897;SHT30;65856;52.178;21.176;2023-07-20T14:52:53;23.75;51.68
76897;SHT30;65856;52.178;21.176;2023-07-20T14:55:19;23.64;51.49
76897;SHT30;65856;52.178;21.176;2023-07-20T14:57:45;23.53;51.42
76897;SHT30;65856;52.178;21.176;2023-07-20T15:00:11;23.46;51.44
76897;SHT30;65856;52.178;21.176;2023-07-20T15:02:37;23.41;51.41
76897;SHT30;65856;52.178;21.176;2023-07-20T15:05:06;23.36;51.15
76897;SHT30;65856;52.178;21.176;2023-07-20T15:07:33;23.34;51.33
76897;SHT30;65856;52.178;21.176;2023-07-20T15:54:46;24.48;47.36
76897;SHT30;65856;52.178;21.176;2023-07-20T15:57:11;24.41;47.91
76897;SHT30;65856;52.178;21.176;2023-07-20T15:59:37;24.31;47.99
76897;SHT30;65856;52.178;21.176;2023-07-20T16:02:03;24.17;47.91
76897;SHT30;65856;52.178;21.176;2023-07-20T16:04:29;24.06;48.00
76897;SHT30;65856;52.178;21.176;2023-07-20T16:06:55;23.98;47.75
76897;SHT30;65856;52.178;21.176;2023-07-20T16:09:21;23.90;47.78
76897;SHT30;65856;52.178;21.176;2023-07-20T16:11:46;23.82;47.96
76897;SHT30;65856;52.178;21.176;2023-07-20T16:14:12;23.72;48.08
76897;SHT30;65856;52.178;21.176;2023-07-20T16:16:38;23.67;48.38
76897;SHT30;65856;52.178;21.176;2023-07-20T16:19:03;23.65;48.61
76897;SHT30;65856;52.178;21.176;2023-07-20T16:29:39;23.37;49.68
76897;SHT30;65856;52.178;21.176;2023-07-20T16:32:05;23.33;49.81
76897;SHT30;65856;52.178;21.176;2023-07-20T16:34:30;23.27;50.15
76897;SHT30;65856;52.178;21.176;2023-07-20T16:36:56;23.18;50.74
76897;SHT30;65856;52.178;21.176;2023-07-20T16:39:22;23.01;50.05